createdAt,value
2019-05-10T00:00:54.692Z,31.93
2019-05-10T00:03:42.798Z,33.88
2019-05-10T00:06:30.240Z,32.48
2019-05-10T00:08:59.261Z,34.63
2019-05-10T00:11:32.786Z,33.87
2019-05-10T00:14:04.572Z,32.98
2019-05-10T00:16:36.256Z,37.85
2019-05-10T00:19:06.100Z,39.25
2019-05-10T00:21:39.593Z,39.33
2019-05-10T00:24:09.576Z,38.35
2019-05-10T00:26:39.272Z,44.53
2019-05-10T00:29:09.049Z,35.85
2019-05-10T00:31:38.808Z,30.62
2019-05-10T00:34:08.657Z,34.92
2019-05-10T00:36:38.394Z,35.23
2019-05-10T00:39:09.560Z,36.80
2019-05-10T00:41:39.204Z,43.23
2019-05-10T00:44:10.621Z,37.13
2019-05-10T00:46:40.261Z,34.98
2019-05-10T00:49:10.019Z,35.78
2019-05-10T00:51:41.579Z,37.40
2019-05-10T00:54:11.378Z,35.68
2019-05-10T00:56:41.125Z,35.00
2019-05-10T00:59:10.685Z,34.50
2019-05-10T01:01:41.967Z,34.95
2019-05-10T01:04:11.745Z,37.40
2019-05-10T01:06:41.419Z,33.20
2019-05-10T01:09:13.681Z,33.40
2019-05-10T01:11:44.928Z,30.48
2019-05-10T01:14:15.723Z,37.33
2019-05-10T01:16:47.068Z,33.05
2019-05-10T01:19:19.395Z,34.75
2019-05-10T01:21:50.575Z,37.17
2019-05-10T01:24:20.970Z,32.88
2019-05-10T01:26:53.511Z,34.67
2019-05-10T01:29:23.228Z,30.62
2019-05-10T01:31:55.077Z,30.32
2019-05-10T01:34:27.115Z,32.85
2019-05-10T01:36:56.759Z,33.75
2019-05-10T01:39:26.506Z,31.55
2019-05-10T01:41:57.654Z,31.60
2019-05-10T01:44:28.945Z,34.58
2019-05-10T01:46:58.699Z,33.78
2019-05-10T01:49:28.593Z,35.52
2019-05-10T01:54:27.187Z,33.83
2019-05-10T01:56:56.899Z,34.08
2019-05-10T01:59:28.317Z,32.33
2019-05-10T02:01:59.820Z,40.10
2019-05-10T02:04:29.483Z,34.25
2019-05-10T02:06:59.327Z,34.63
2019-05-10T02:09:33.483Z,35.73
2019-05-10T02:12:03.291Z,33.80
2019-05-10T02:14:34.614Z,37.42
2019-05-10T02:17:06.025Z,35.65
2019-05-10T02:19:35.767Z,32.38
2019-05-10T02:22:05.521Z,36.42
2019-05-10T02:24:35.151Z,34.98
2019-05-10T02:27:04.917Z,36.38
2019-05-10T02:29:34.581Z,31.23
2019-05-10T02:32:04.710Z,29.75
2019-05-10T02:34:34.287Z,32.48
2019-05-10T02:37:04.058Z,35.08
2019-05-10T02:39:33.766Z,28.07
2019-05-10T02:42:03.641Z,28.70
2019-05-10T02:47:02.380Z,30.15
2019-05-10T02:49:32.225Z,30.97
2019-05-10T02:52:01.954Z,33.05
2019-05-10T02:54:32.767Z,29.55
2019-05-10T02:57:03.501Z,28.02
2019-05-10T02:59:34.898Z,28.85
2019-05-10T03:02:06.759Z,31.35
2019-05-10T03:04:37.241Z,28.55
2019-05-10T03:07:07.292Z,27.02
2019-05-10T03:09:36.939Z,27.60
2019-05-10T03:12:12.382Z,26.35
2019-05-10T03:14:43.624Z,25.52
2019-05-10T03:17:14.643Z,25.32
2019-05-10T03:19:44.816Z,26.27
2019-05-10T03:22:14.986Z,26.02
2019-05-10T03:24:44.788Z,23.57
2019-05-10T03:27:14.524Z,23.07
2019-05-10T03:29:44.470Z,25.17
2019-05-10T03:34:45.933Z,26.65
2019-05-10T03:37:15.774Z,25.17
2019-05-10T03:39:45.735Z,26.57
2019-05-10T03:44:47.202Z,24.75
2019-05-10T03:47:17.009Z,30.02
2019-05-10T03:49:47.138Z,26.75
2019-05-10T03:52:16.781Z,28.10
2019-05-10T03:54:46.574Z,31.65
2019-05-10T03:57:19.128Z,28.87
2019-05-10T03:59:48.946Z,29.12
2019-05-10T04:04:50.121Z,29.55
2019-05-10T04:07:19.745Z,26.93
2019-05-10T04:09:51.066Z,28.52
2019-05-10T04:12:20.783Z,29.52
2019-05-10T04:14:52.029Z,29.65
2019-05-10T04:17:24.429Z,30.32
2019-05-10T04:19:54.165Z,31.87
2019-05-10T04:22:23.842Z,29.35
2019-05-10T04:24:55.963Z,27.77
2019-05-10T04:27:32.437Z,27.50
2019-05-10T04:29:58.122Z,31.35
2019-05-10T04:32:27.987Z,28.15
2019-05-10T04:37:26.476Z,28.95
2019-05-10T04:39:56.153Z,29.57
2019-05-10T04:42:25.858Z,31.23
2019-05-10T04:44:55.670Z,30.02
2019-05-10T04:47:26.971Z,29.25
2019-05-10T04:49:56.824Z,29.42
2019-05-10T04:52:26.463Z,29.65
2019-05-10T04:54:56.258Z,26.70
2019-05-10T04:57:26.015Z,31.50
2019-05-10T04:59:57.378Z,31.17
2019-05-10T05:02:27.050Z,29.80
2019-05-10T05:04:56.831Z,31.70
2019-05-10T05:07:29.313Z,33.30
2019-05-10T05:09:59.065Z,29.35
2019-05-10T05:12:28.693Z,26.60
2019-05-10T05:14:58.340Z,27.20
2019-05-10T05:17:28.054Z,33.63
2019-05-10T05:19:59.268Z,29.90
2019-05-10T05:22:30.435Z,31.42
2019-05-10T05:25:01.314Z,34.63
2019-05-10T05:27:31.408Z,32.63
2019-05-10T05:30:02.137Z,32.55
2019-05-10T05:32:38.642Z,27.27
2019-05-10T05:35:05.978Z,30.85
2019-05-10T05:37:36.859Z,32.25
2019-05-10T05:40:09.316Z,32.13
2019-05-10T05:42:39.098Z,31.23
2019-05-10T06:00:44.787Z,32.03
2019-05-10T06:03:19.339Z,29.60
2019-05-10T06:05:44.336Z,31.75
2019-05-10T06:08:23.183Z,31.00
2019-05-10T06:10:56.157Z,31.45
2019-05-10T06:13:23.536Z,30.90
2019-05-10T06:15:51.613Z,31.87
2019-05-10T06:18:21.424Z,29.42
2019-05-10T06:20:51.104Z,26.77
2019-05-10T06:23:20.737Z,30.82
2019-05-10T06:25:50.393Z,30.43
2019-05-10T06:28:26.802Z,30.65
2019-05-10T06:30:52.580Z,32.75
2019-05-10T06:33:22.202Z,29.05
2019-05-10T06:35:52.006Z,31.90
2019-05-10T06:38:24.615Z,32.95
2019-05-10T06:40:55.567Z,33.23
2019-05-10T06:45:54.053Z,34.70
2019-05-10T06:48:27.449Z,28.70
2019-05-10T06:50:56.300Z,32.33
2019-05-10T06:55:54.705Z,27.65
2019-05-10T06:58:24.233Z,28.32
2019-05-10T07:00:55.498Z,31.85
2019-05-10T07:03:25.204Z,26.87
2019-05-10T07:05:54.888Z,32.17
2019-05-10T07:08:24.427Z,33.40
2019-05-10T07:10:54.192Z,33.73
2019-05-10T07:13:23.792Z,28.77
2019-05-10T07:15:53.432Z,31.00
2019-05-10T07:18:24.223Z,24.43
2019-05-10T07:20:54.980Z,23.62
2019-05-10T07:25:53.604Z,18.98
2019-05-10T07:30:52.059Z,20.05
2019-05-10T07:33:21.758Z,15.50
2019-05-10T07:35:51.417Z,17.07
2019-05-10T07:38:23.878Z,14.95
2019-05-10T07:40:53.440Z,13.88
2019-05-10T07:45:58.504Z,13.85
2019-05-10T07:48:25.587Z,15.93
2019-05-10T07:50:55.300Z,12.43
2019-05-10T07:53:25.266Z,14.90
2019-05-10T07:55:59.806Z,10.63
2019-05-10T07:58:26.095Z,11.73
2019-05-10T08:00:56.230Z,11.55
2019-05-10T08:03:26.010Z,10.68
2019-05-10T08:06:01.266Z,10.98
2019-05-10T08:08:29.644Z,10.78
2019-05-10T08:11:00.742Z,10.95
2019-05-10T08:13:30.481Z,10.68
2019-05-10T08:18:29.286Z,11.70
2019-05-10T08:21:02.549Z,10.45
2019-05-10T08:23:30.436Z,9.73
2019-05-10T08:28:36.073Z,9.40
2019-05-10T08:31:02.322Z,9.65
2019-05-10T08:33:32.878Z,10.98
2019-05-10T08:36:05.125Z,9.75
2019-05-10T08:38:33.988Z,10.65
2019-05-10T08:43:38.935Z,8.68
2019-05-10T08:46:05.471Z,10.05
2019-05-10T08:51:07.495Z,8.60
2019-05-10T08:53:36.784Z,8.68
2019-05-10T08:56:13.981Z,8.05
2019-05-10T08:58:41.961Z,9.63
2019-05-10T09:01:18.994Z,9.85
2019-05-10T09:03:42.163Z,11.65
2019-05-10T09:06:16.639Z,9.55
2019-05-10T09:08:43.441Z,9.65
2019-05-10T09:13:45.938Z,9.70
2019-05-10T09:16:13.710Z,9.73
2019-05-10T09:18:50.254Z,9.75
2019-05-10T09:21:14.819Z,11.03
2019-05-10T09:23:52.896Z,12.45
2019-05-10T09:26:23.156Z,11.48
2019-05-10T09:28:57.619Z,11.25
2019-05-10T09:31:25.733Z,11.63
2019-05-10T09:34:02.411Z,11.35
2019-05-10T09:36:36.134Z,11.60
2019-05-10T09:39:09.089Z,10.55
2019-05-10T09:41:38.471Z,12.55
2019-05-10T09:44:08.293Z,10.75
2019-05-10T09:49:15.597Z,11.53
2019-05-10T09:51:38.431Z,9.55
2019-05-10T09:56:44.158Z,11.70
2019-05-10T09:59:11.377Z,9.90
2019-05-10T10:01:41.016Z,10.43
2019-05-10T10:06:41.792Z,11.97
2019-05-10T10:09:11.280Z,12.43
2019-05-10T10:11:48.549Z,12.05
2019-05-10T10:14:14.173Z,11.18
2019-05-10T10:16:57.823Z,12.30
2019-05-10T10:19:21.447Z,13.83
2019-05-10T10:21:51.164Z,11.25
2019-05-10T10:24:20.875Z,10.18
2019-05-10T10:26:54.006Z,11.25
2019-05-10T10:29:23.816Z,10.18
2019-05-10T10:31:58.312Z,10.68
2019-05-10T10:34:32.561Z,10.65
2019-05-10T10:37:01.476Z,10.23
2019-05-10T10:39:31.088Z,10.18
2019-05-10T10:42:08.907Z,10.32
2019-05-10T10:44:38.274Z,9.90
2019-05-10T10:47:08.349Z,10.50
2019-05-10T10:49:40.572Z,10.18
2019-05-10T10:52:13.660Z,10.28
2019-05-10T10:54:45.040Z,12.73
2019-05-10T10:57:14.714Z,12.37
2019-05-10T11:02:31.547Z,11.83
2019-05-10T11:04:48.819Z,9.70
2019-05-10T11:07:18.275Z,10.20
2019-05-10T11:09:47.997Z,9.95
2019-05-10T11:12:21.075Z,9.75
2019-05-10T11:14:49.065Z,9.75
2019-05-10T11:17:18.771Z,9.20
2019-05-10T11:19:48.972Z,10.23
2019-05-10T11:22:18.657Z,10.70
2019-05-10T11:24:51.768Z,8.85
2019-05-10T11:27:22.092Z,9.20
2019-05-10T11:29:54.888Z,9.08
2019-05-10T11:32:22.053Z,11.05
2019-05-10T11:37:30.908Z,9.75
2019-05-10T11:39:53.607Z,11.08
2019-05-10T11:42:24.465Z,10.05
2019-05-10T11:44:54.701Z,10.28
2019-05-10T11:47:27.038Z,11.22
2019-05-10T11:49:56.071Z,10.88
2019-05-10T11:52:29.254Z,11.78
2019-05-10T11:54:57.247Z,11.70
2019-05-10T11:57:28.537Z,10.65
2019-05-10T11:59:58.283Z,10.85
2019-05-10T12:02:38.307Z,10.80
2019-05-10T12:05:15.849Z,11.48
2019-05-10T12:07:45.489Z,10.65
2019-05-10T12:10:18.342Z,12.07
2019-05-10T12:13:00.467Z,10.85
2019-05-10T12:15:24.695Z,12.47
2019-05-10T12:17:58.533Z,11.03
2019-05-10T12:20:26.845Z,12.15
2019-05-10T12:22:52.512Z,11.20
2019-05-10T12:25:41.983Z,10.32
2019-05-10T12:27:53.714Z,9.78
2019-05-10T12:30:23.480Z,9.98
2019-05-10T12:32:56.590Z,9.85
2019-05-10T12:35:35.773Z,8.60
2019-05-10T12:38:01.794Z,10.58
2019-05-10T12:40:34.482Z,10.15
2019-05-10T12:43:10.982Z,11.28
2019-05-10T12:45:41.785Z,10.40
2019-05-10T12:48:12.789Z,8.23
2019-05-10T12:50:44.120Z,11.05
2019-05-10T12:53:18.510Z,10.30
2019-05-10T12:55:48.391Z,10.88
2019-05-10T12:58:20.578Z,9.48
2019-05-10T13:00:52.397Z,9.03
2019-05-10T13:03:25.289Z,8.48
2019-05-10T13:05:54.465Z,8.45
2019-05-10T13:08:24.182Z,10.13
2019-05-10T13:10:57.063Z,8.73
2019-05-10T13:13:29.830Z,8.23
2019-05-10T13:15:58.081Z,9.03
2019-05-10T13:18:49.773Z,7.50
2019-05-10T13:21:07.597Z,9.10
2019-05-10T13:23:35.889Z,8.55
2019-05-10T13:26:05.669Z,7.83
2019-05-10T13:28:35.471Z,7.97
2019-05-10T13:31:05.901Z,7.92
2019-05-10T13:33:41.880Z,8.33
2019-05-10T13:36:07.915Z,8.43
2019-05-10T13:38:43.918Z,11.03
2019-05-10T13:41:10.881Z,7.20
2019-05-10T13:43:40.789Z,7.10
2019-05-10T13:46:11.979Z,7.70
2019-05-10T13:48:41.738Z,7.55
2019-05-10T13:51:11.430Z,6.78
2019-05-10T13:53:42.596Z,7.42
2019-05-10T13:56:15.827Z,7.62
2019-05-10T13:58:45.479Z,7.60
2019-05-10T14:01:15.178Z,6.92
2019-05-10T14:03:53.741Z,6.85
2019-05-10T14:06:17.297Z,7.00
2019-05-10T14:08:48.384Z,8.25
2019-05-10T14:11:19.842Z,7.12
2019-05-10T14:13:49.666Z,6.80
2019-05-10T14:16:22.568Z,7.37
2019-05-10T14:18:52.398Z,6.65
2019-05-10T14:21:23.663Z,7.40
2019-05-10T14:23:58.819Z,7.08
2019-05-10T14:26:31.059Z,6.28
2019-05-10T14:29:00.784Z,7.15
2019-05-10T14:31:30.838Z,7.28
2019-05-10T14:34:14.508Z,8.93
2019-05-10T14:36:34.233Z,6.60
2019-05-10T14:39:04.922Z,7.20
2019-05-10T14:41:39.802Z,6.75
2019-05-10T14:44:08.693Z,8.15
2019-05-10T14:46:38.279Z,7.55
2019-05-10T14:49:09.747Z,7.12
2019-05-10T14:51:57.396Z,7.15
2019-05-10T14:54:10.688Z,7.08
2019-05-10T14:56:41.929Z,9.75
2019-05-10T14:59:11.717Z,7.22
2019-05-10T15:01:45.489Z,7.47
2019-05-10T15:04:20.136Z,7.25
2019-05-10T15:06:46.696Z,6.87
2019-05-10T15:09:22.098Z,7.20
2019-05-10T15:11:49.474Z,7.22
2019-05-10T15:14:20.817Z,7.03
2019-05-10T15:16:50.448Z,7.80
2019-05-10T15:19:20.124Z,7.12
2019-05-10T15:21:49.941Z,6.53
2019-05-10T15:24:19.707Z,6.58
2019-05-10T15:26:49.401Z,8.25
2019-05-10T15:29:22.219Z,6.85
2019-05-10T15:31:51.955Z,6.33
2019-05-10T15:34:21.645Z,7.28
2019-05-10T15:36:51.269Z,6.60
2019-05-10T15:39:22.959Z,7.10
2019-05-10T15:41:59.323Z,6.65
2019-05-10T15:44:31.439Z,6.40
2019-05-10T15:47:01.097Z,6.75
2019-05-10T15:49:30.832Z,6.72
2019-05-10T15:52:16.969Z,5.90
2019-05-10T15:54:31.925Z,5.97
2019-05-10T15:57:01.678Z,5.80
2019-05-10T15:59:32.359Z,6.47
2019-05-10T16:02:01.995Z,6.47
2019-05-10T16:04:31.702Z,6.62
2019-05-10T16:07:01.384Z,6.22
2019-05-10T16:09:31.115Z,6.55
2019-05-10T16:12:01.875Z,6.08
2019-05-10T16:14:33.070Z,5.28
2019-05-10T16:17:03.546Z,6.40
2019-05-10T16:19:33.388Z,5.65
2019-05-10T16:22:03.187Z,6.35
2019-05-10T16:24:32.866Z,7.40
2019-05-10T16:27:07.587Z,6.20
2019-05-10T16:29:40.124Z,8.93
2019-05-10T16:32:08.714Z,6.25
2019-05-10T16:34:38.586Z,6.55
2019-05-10T16:37:08.389Z,5.80
2019-05-10T16:39:38.224Z,8.88
2019-05-10T16:42:07.890Z,6.37
2019-05-10T16:44:37.560Z,6.90
2019-05-10T16:47:07.340Z,6.15
2019-05-10T16:49:36.967Z,6.45
2019-05-10T16:52:06.647Z,6.42
2019-05-10T16:54:36.211Z,6.33
2019-05-10T16:57:05.891Z,6.95
2019-05-10T16:59:35.517Z,6.87
2019-05-10T17:02:06.495Z,6.67
2019-05-10T17:04:37.909Z,6.92
2019-05-10T17:07:12.878Z,6.37
2019-05-10T17:09:41.694Z,8.53
2019-05-10T17:12:11.563Z,6.42
2019-05-10T17:14:44.151Z,6.53
2019-05-10T17:17:13.948Z,6.08
2019-05-10T17:19:43.800Z,6.08
2019-05-10T17:22:13.515Z,6.45
2019-05-10T17:24:43.219Z,7.35
2019-05-10T17:27:12.915Z,6.37
2019-05-10T17:29:44.499Z,5.90
2019-05-10T17:32:18.856Z,6.62
2019-05-10T17:34:46.625Z,5.85
2019-05-10T17:37:16.304Z,8.08
2019-05-10T17:39:46.015Z,5.42
2019-05-10T17:42:15.721Z,6.20
2019-05-10T17:44:45.480Z,5.58
2019-05-10T17:47:15.127Z,5.65
2019-05-10T17:49:44.901Z,8.53
2019-05-10T17:52:21.040Z,5.80
2019-05-10T17:54:51.050Z,8.33
2019-05-10T17:57:20.850Z,6.50
2019-05-10T17:59:53.104Z,7.15
2019-05-10T18:02:21.744Z,9.05
2019-05-10T18:04:51.439Z,6.30
2019-05-10T18:07:21.023Z,6.92
2019-05-10T18:09:50.740Z,5.80
2019-05-10T18:12:23.073Z,6.60
2019-05-10T18:14:55.894Z,6.12
2019-05-10T18:17:30.963Z,6.30
2019-05-10T18:20:06.727Z,6.85
2019-05-10T18:22:43.477Z,6.58
2019-05-10T18:25:19.456Z,9.75
2019-05-10T18:28:06.265Z,8.90
2019-05-10T18:36:58.697Z,7.25
2019-05-10T18:39:41.352Z,8.40
2019-05-10T18:42:27.735Z,7.15
2019-05-10T18:48:08.316Z,8.75
2019-05-10T18:50:39.595Z,9.10
2019-05-10T18:53:11.065Z,9.33
2019-05-10T18:55:43.845Z,10.45
2019-05-10T18:58:35.652Z,9.23
2019-05-10T19:01:06.990Z,8.20
2019-05-10T19:09:21.994Z,8.83
2019-05-10T19:11:50.151Z,12.20
2019-05-10T19:14:23.810Z,10.05
2019-05-10T19:16:53.305Z,8.95
2019-05-10T19:19:23.015Z,10.35
2019-05-10T19:21:52.785Z,9.60
2019-05-10T19:26:55.781Z,16.23
2019-05-10T19:29:27.462Z,10.55
2019-05-10T19:31:56.865Z,11.20
2019-05-10T19:34:26.561Z,8.25
2019-05-10T19:36:56.286Z,11.45
2019-05-10T19:39:25.974Z,12.47
2019-05-10T19:42:02.925Z,7.83
2019-05-10T19:44:26.913Z,12.03
2019-05-10T19:46:57.538Z,17.25
2019-05-10T19:49:27.198Z,11.80
2019-05-10T19:51:56.817Z,11.48
2019-05-10T19:54:26.676Z,11.33
2019-05-10T19:59:25.613Z,14.58
2019-05-10T20:01:55.247Z,15.70
2019-05-10T20:04:25.081Z,14.00
2019-05-10T20:09:26.385Z,14.33
2019-05-10T20:11:55.893Z,13.45
2019-05-10T20:14:27.149Z,11.65
2019-05-10T20:16:56.878Z,16.02
2019-05-10T20:19:31.228Z,14.65
2019-05-10T20:27:39.449Z,11.90
2019-05-10T20:30:21.255Z,14.55
2019-05-10T20:36:17.180Z,12.68
2019-05-10T20:41:57.122Z,14.18
2019-05-10T20:45:06.169Z,11.60
2019-05-10T20:51:18.056Z,14.30
2019-05-10T20:53:35.155Z,11.35
2019-05-10T20:56:09.814Z,14.45
2019-05-10T20:58:51.996Z,12.95
2019-05-10T21:01:29.366Z,12.18
2019-05-10T21:04:05.009Z,10.13
2019-05-10T21:06:34.990Z,11.03
2019-05-10T21:09:08.194Z,11.22
2019-05-10T21:11:54.365Z,11.35
2019-05-10T21:14:29.516Z,15.13
2019-05-10T21:17:02.457Z,10.70
2019-05-10T21:19:33.961Z,13.58
2019-05-10T21:22:26.067Z,11.35
2019-05-10T21:24:51.351Z,10.32
2019-05-10T21:27:28.823Z,9.65
2019-05-10T21:30:00.616Z,14.87
2019-05-10T21:32:31.889Z,11.12
2019-05-10T21:35:01.567Z,9.53
2019-05-10T21:37:31.309Z,13.45
2019-05-10T21:40:01.001Z,13.38
2019-05-10T21:42:30.902Z,13.18
2019-05-10T21:45:00.580Z,13.15
2019-05-10T21:47:30.258Z,13.98
2019-05-10T21:50:00.060Z,11.12
2019-05-10T21:54:58.652Z,12.98
2019-05-10T21:57:28.456Z,17.07
2019-05-10T21:59:58.239Z,17.40
2019-05-10T22:04:56.805Z,14.40
2019-05-10T22:07:26.374Z,8.37
2019-05-10T22:09:56.157Z,15.35
2019-05-10T22:12:27.503Z,13.70
2019-05-10T22:17:28.900Z,11.20
2019-05-10T22:19:58.700Z,16.37
2019-05-10T22:22:28.355Z,14.18
2019-05-10T22:24:58.159Z,16.55
2019-05-10T22:29:58.292Z,15.93
2019-05-10T22:32:28.048Z,17.00
2019-05-10T22:34:57.675Z,14.87
2019-05-10T22:37:30.281Z,13.75
2019-05-10T22:39:59.827Z,12.00
2019-05-10T22:42:29.669Z,15.85
2019-05-10T22:44:59.267Z,18.42
2019-05-10T22:47:29.026Z,14.23
2019-05-10T22:49:58.675Z,13.58
2019-05-10T22:52:28.311Z,18.35
2019-05-10T22:55:00.473Z,13.25
2019-05-10T22:57:29.264Z,13.90
2019-05-10T22:59:59.007Z,14.23
2019-05-10T23:02:28.645Z,14.98
2019-05-10T23:04:58.405Z,12.63
2019-05-10T23:07:28.347Z,16.82
2019-05-10T23:12:27.086Z,20.15
2019-05-10T23:17:25.578Z,19.17
2019-05-10T23:19:55.256Z,19.80
2019-05-10T23:22:24.885Z,12.36
2019-05-10T23:24:56.063Z,21.50
2019-05-10T23:27:25.719Z,19.75
2019-05-10T23:29:55.368Z,16.10
2019-05-10T23:32:25.058Z,18.90
2019-05-10T23:34:54.889Z,15.58
2019-05-10T23:37:24.638Z,15.05
2019-05-10T23:39:54.315Z,16.75
2019-05-10T23:42:24.994Z,16.75
2019-05-10T23:44:54.786Z,15.83
2019-05-10T23:52:24.943Z,17.82
2019-05-10T23:54:54.753Z,17.80
2019-05-10T23:57:24.456Z,20.57
2019-05-10T23:59:57.239Z,19.27
